Amsterdam Airport Schiphol

EHAM | AMS

Amsterdam , North-Holland , Netherlands

Friday, November 22nd, 2019 | 08:01

Weather

EHAM 220655Z 14010KT 9999 FEW042 BKN045 06/04 Q1003 NOSIG

Charts

2 Available

Gates

289 Available

Runways

6 Available

Events

2 Events Coming Up Soon

Next event:
100 Years KLM |


New event